Hub


Voltar

 INFORMAÇÕES METEOROLÓGICAS

METAR FOR PAYA


ADDS - METARS form results

(0841 UTC 25 March 2019)
Data provider http://aviationweather.gov/metar/data/
 
METAR text: PAYA 250830Z AUTO 00000KT 2 1/2SM BR BKN002 M01/M01 A3036 RMK AO2 VIS 1 1/2V4 I1000 T10061011 TSNO $
Conditions at: PAYA (YAKUTAT , AK, US) observed 0830 UTC 25 March 2019
Temperature: -0.6°C (31°F)
Dewpoint: -1.1°C (30°F) [RH = 96%]
Pressure (altimeter): 30.36 inches Hg (1028.2 mb)
Winds: calm
Visibility: 2.50 miles (4.02 km)
Ceiling: 200 feet AGL
Clouds: broken clouds at 200 feet AGL
Weather: BR  (mist)
SOME DATA ABOVE MAY BE INACCURATE!!!
"$" is an indication the sensor requires maintenance

METAR text: PAYA 250827Z AUTO 29003KT 1 1/2SM BR SCT002 00/M01 A3035 RMK AO2 T00001006 TSNO $
Conditions at: PAYA (YAKUTAT , AK, US) observed 0827 UTC 25 March 2019
Temperature: 0.0°C (32°F)
Dewpoint: -0.6°C (31°F) [RH = 96%]
Pressure (altimeter): 30.35 inches Hg (1027.9 mb)
Winds: from the WNW (290 degrees) at 3 MPH (3 knots; 1.5 m/s)
Visibility: 1.50 miles (2.41 km)
Ceiling: at least 12,000 feet AGL
Clouds: scattered clouds at 200 feet AGL
Weather: BR  (mist)
SOME DATA ABOVE MAY BE INACCURATE!!!
"$" is an indication the sensor requires maintenance

METAR text: PAYA 250820Z AUTO 00000KT 1/2SM FZFG VV002 M01/M01 A3035 RMK AO2 T10061011 TSNO RVRNO $
Conditions at: PAYA (YAKUTAT , AK, US) observed 0820 UTC 25 March 2019
Temperature: -0.6°C (31°F)
Dewpoint: -1.1°C (30°F) [RH = 96%]
Pressure (altimeter): 30.35 inches Hg (1027.9 mb)
Winds: calm
Visibility: 0.50 miles (0.80 km)
Ceiling: indefinite ceiling with vertical visibility of 200 feet AGL
Clouds: obscured sky
Weather: FZFG  (freezing fog)
SOME DATA ABOVE MAY BE INACCURATE!!!
"$" is an indication the sensor requires maintenance

METAR text: PAYA 250812Z AUTO 00000KT 1 1/4SM BR OVC003 M01/M01 A3035 RMK AO2 VIS 1/2V4 T10061011 TSNO $
Conditions at: PAYA (YAKUTAT , AK, US) observed 0812 UTC 25 March 2019
Temperature: -0.6°C (31°F)
Dewpoint: -1.1°C (30°F) [RH = 96%]
Pressure (altimeter): 30.35 inches Hg (1027.9 mb)
Winds: calm
Visibility: 1.25 miles (2.01 km)
Ceiling: 300 feet AGL
Clouds: overcast cloud deck at 300 feet AGL
Weather: BR  (mist)
SOME DATA ABOVE MAY BE INACCURATE!!!
"$" is an indication the sensor requires maintenance

METAR text: PAYA 250808Z AUTO 00000KT 2SM BR BKN003 00/M01 A3036 RMK AO2 VIS 1 1/4V4 T00001011 TSNO $
Conditions at: PAYA (YAKUTAT , AK, US) observed 0808 UTC 25 March 2019
Temperature: 0.0°C (32°F)
Dewpoint: -1.1°C (30°F) [RH = 92%]
Pressure (altimeter): 30.36 inches Hg (1028.2 mb)
Winds: calm
Visibility: 2.00 miles (3.22 km)
Ceiling: 300 feet AGL
Clouds: broken clouds at 300 feet AGL
Weather: BR  (mist)
SOME DATA ABOVE MAY BE INACCURATE!!!
"$" is an indication the sensor requires maintenance

METAR text: PAYA 250753Z AUTO 00000KT 3SM BR BKN004 00/M01 A3036 RMK AO2 SLP280 T00001006 TSNO $
Conditions at: PAYA (YAKUTAT , AK, US) observed 0753 UTC 25 March 2019
Temperature: 0.0°C (32°F)
Dewpoint: -0.6°C (31°F) [RH = 96%]
Pressure (altimeter): 30.36 inches Hg (1028.2 mb)
[Sea-level pressure: 1028.0 mb]
Winds: calm
Visibility: 3 miles ( 5 km)
Ceiling: 400 feet AGL
Clouds: broken clouds at 400 feet AGL
Weather: BR  (mist)
SOME DATA ABOVE MAY BE INACCURATE!!!
"$" is an indication the sensor requires maintenance

Forecast for: PAYA (YAKUTAT , AK, US)
Text: PAYA 250800Z 2508/2606 00000KT P6SM FEW040 BKN150
Forecast period: 0800 to 1500 UTC 25 March 2019
Forecast type: FROM: standard forecast or significant change
Winds: calm
Visibility: 6 or more miles 10+ km)
Ceiling: 15000 feet AGL
Clouds: few clouds at 4000 feet AGL
broken clouds at 15000 feet AGL
Weather: no significant weather forecast for this period
Text: TEMPO 2508/2511 1/2SM FG BKN003
Forecast period: 0800 to 1100 UTC 25 March 2019
Forecast type: TEMPORARY: The following changes expected for less than half the time period
Visibility: 0.50 miles (0.80 km)
Ceiling: 300 feet AGL
Clouds: broken clouds at 300 feet AGL
Weather: FG  (fog)
Text: FM251500 VRB03KT P6SM FEW020 BKN040 AMD LTD TO CLD VIS AND WIND
Forecast period: 1500 UTC 25 March 2019 to 0600 UTC 26 March 2019
Forecast type: FROM: standard forecast or significant change
Winds: variable direction winds at 3 MPH (3 knots; 1.5 m/s)
Visibility: 6 or more miles 10+ km)
Ceiling: 4000 feet AGL
Clouds: few clouds at 2000 feet AGL
broken clouds at 4000 feet AGL
Weather: no significant weather forecast for this period


 MAPA DO AEROPORTO


 INFORMAÇÕES DA PISTA

Pista 02 Tamanho da pista 6475 ft Largura da pista 150 ft
Elevação da pista 18 ft Ranhura da pista 0 ft Proa da pista 45
Pista 20 Tamanho da pista 6475 ft Largura da pista 150 ft
Elevação da pista 30 ft Ranhura da pista 0 ft Proa da pista 225
Pista 11 Tamanho da pista 7745 ft Largura da pista 150 ft
Elevação da pista 32 ft Ranhura da pista 0 ft Proa da pista 135
Pista 29 Tamanho da pista 7745 ft Largura da pista 150 ft
Elevação da pista 19 ft Ranhura da pista 0 ft Proa da pista 315

 FREQUÊNCIAS DO AEROPORTO


 AUXÍLIOS DE NAVEGAÇÃO PRÓXIMOS AO AEROPORTO

Tipo NDB Nome Ocean Cape Frequência 385 KHZ
Tipo VOR-DME Nome Yakutat Frequência 113300 KHZ